createdAt,value
2019-04-23T00:00:33.143Z,21.00
2019-04-23T00:03:05.616Z,21.00
2019-04-23T00:05:44.886Z,21.00
2019-04-23T00:08:04.565Z,21.00
2019-04-23T00:10:25.655Z,21.00
2019-04-23T00:12:47.857Z,21.00
2019-04-23T00:15:15.075Z,20.90
2019-04-23T00:17:41.914Z,21.00
2019-04-23T00:20:12.585Z,21.00
2019-04-23T00:22:36.643Z,20.90
2019-04-23T00:25:30.760Z,20.90
2019-04-23T00:27:31.471Z,20.90
2019-04-23T00:32:26.734Z,20.90
2019-04-23T00:34:49.637Z,20.90
2019-04-23T00:37:24.285Z,20.90
2019-04-23T00:39:44.013Z,20.80
2019-04-23T00:42:08.299Z,20.80
2019-04-23T00:44:41.444Z,20.80
2019-04-23T00:46:54.422Z,20.80
2019-04-23T00:49:27.056Z,20.80
2019-04-23T00:51:49.717Z,20.80
2019-04-23T00:54:20.793Z,20.80
2019-04-23T00:56:44.622Z,20.70
2019-04-23T00:59:06.744Z,20.70
2019-04-23T01:01:47.763Z,20.70
2019-04-23T01:04:08.487Z,20.80
2019-04-23T01:06:54.862Z,20.80
2019-04-23T01:09:00.031Z,20.70
2019-04-23T01:11:20.666Z,20.70
2019-04-23T01:13:48.968Z,20.70
2019-04-23T01:16:13.093Z,20.70
2019-04-23T01:20:54.162Z,20.70
2019-04-23T01:23:11.569Z,20.70
2019-04-23T01:25:51.609Z,20.70
2019-04-23T01:28:34.006Z,20.70
2019-04-23T01:33:29.567Z,20.70
2019-04-23T01:36:00.997Z,20.70
2019-04-23T01:38:11.152Z,20.70
2019-04-23T01:43:04.273Z,20.70
2019-04-23T01:45:27.100Z,20.70
2019-04-23T01:48:10.663Z,20.70
2019-04-23T01:50:32.792Z,20.70
2019-04-23T01:52:52.699Z,20.80
2019-04-23T01:55:21.265Z,20.80
2019-04-23T01:58:04.538Z,20.80
2019-04-23T02:00:18.798Z,20.80
2019-04-23T02:02:43.084Z,20.80
2019-04-23T02:05:09.725Z,20.80
2019-04-23T02:07:40.023Z,20.80
2019-04-23T02:12:30.543Z,20.80
2019-04-23T02:14:50.363Z,20.80
2019-04-23T02:17:18.841Z,20.80
2019-04-23T02:19:46.856Z,20.80
2019-04-23T02:22:05.172Z,20.80
2019-04-23T02:26:55.749Z,20.80
2019-04-23T02:29:36.172Z,20.80
2019-04-23T02:34:42.928Z,20.70
2019-04-23T02:36:57.112Z,20.80
2019-04-23T02:39:13.116Z,20.70
2019-04-23T02:46:31.901Z,20.70
2019-04-23T02:49:04.956Z,20.70
2019-04-23T02:51:34.625Z,20.70
2019-04-23T02:54:10.850Z,20.70
2019-04-23T02:56:32.941Z,20.80
2019-04-23T02:58:52.186Z,20.80
2019-04-23T03:03:53.333Z,20.70
2019-04-23T03:06:18.851Z,20.80
2019-04-23T03:08:32.607Z,20.70
2019-04-23T03:21:00.379Z,20.70
2019-04-23T03:23:25.286Z,20.70
2019-04-23T03:25:31.082Z,20.70
2019-04-23T03:28:03.710Z,20.70
2019-04-23T03:30:48.732Z,20.70
2019-04-23T03:36:33.824Z,20.70
2019-04-23T03:37:48.932Z,20.70
2019-04-23T03:40:18.709Z,20.70
2019-04-23T03:43:01.272Z,20.70
2019-04-23T03:45:20.870Z,20.70
2019-04-23T03:47:32.144Z,20.70
2019-04-23T03:50:04.922Z,20.70
2019-04-23T03:54:49.194Z,20.70
2019-04-23T03:57:24.691Z,20.60
2019-04-23T03:59:49.436Z,20.60
2019-04-23T04:04:35.032Z,20.60
2019-04-23T04:07:10.690Z,20.60
2019-04-23T04:09:36.960Z,20.60
2019-04-23T04:11:57.259Z,20.60
2019-04-23T04:14:33.299Z,20.60
2019-04-23T04:19:24.552Z,20.60
2019-04-23T04:21:36.901Z,20.50
2019-04-23T04:29:01.327Z,20.60
2019-04-23T04:31:30.907Z,20.60
2019-04-23T04:36:21.759Z,20.60
2019-04-23T04:38:44.950Z,20.60
2019-04-23T04:41:23.995Z,20.60
2019-04-23T04:43:57.863Z,20.60
2019-04-23T04:48:37.748Z,20.50
2019-04-23T04:51:00.058Z,20.50
2019-04-23T04:53:46.829Z,20.40
2019-04-23T04:55:54.870Z,20.40
2019-04-23T04:58:32.237Z,20.40
2019-04-23T05:00:54.296Z,20.40
2019-04-23T05:06:02.561Z,20.40
2019-04-23T05:07:54.863Z,20.40
2019-04-23T05:10:32.463Z,20.40
2019-04-23T05:13:03.551Z,20.40
2019-04-23T05:15:28.338Z,20.50
2019-04-23T05:20:12.494Z,20.50
2019-04-23T05:22:40.583Z,20.50
2019-04-23T05:24:51.051Z,20.40
2019-04-23T05:27:28.803Z,20.20
2019-04-23T05:29:56.043Z,20.10
2019-04-23T05:32:19.400Z,20.10
2019-04-23T05:34:40.162Z,20.00
2019-04-23T05:37:15.949Z,20.00
2019-04-23T05:39:39.805Z,20.00
2019-04-23T05:42:02.131Z,20.00
2019-04-23T05:44:44.744Z,20.00
2019-04-23T05:46:52.170Z,20.10
2019-04-23T05:49:23.076Z,20.20
2019-04-23T05:54:14.005Z,20.30
2019-04-23T05:56:38.503Z,20.30
2019-04-23T06:01:49.765Z,20.40
2019-04-23T06:04:14.072Z,20.40
2019-04-23T06:08:55.080Z,20.30
2019-04-23T06:11:19.158Z,20.30
2019-04-23T06:13:56.147Z,20.40
2019-04-23T06:16:19.825Z,20.50
2019-04-23T06:18:38.924Z,20.50
2019-04-23T06:21:03.052Z,20.50
2019-04-23T06:26:10.070Z,20.60
2019-04-23T06:28:23.798Z,20.60
2019-04-23T06:33:31.024Z,20.60
2019-04-23T06:35:39.509Z,20.60
2019-04-23T06:40:35.821Z,20.60
2019-04-23T06:43:01.005Z,20.60
2019-04-23T06:45:28.205Z,20.70
2019-04-23T06:47:54.026Z,20.70
2019-04-23T06:50:14.895Z,20.70
2019-04-23T06:52:41.153Z,20.70
2019-04-23T06:55:18.655Z,20.60
2019-04-23T06:57:33.671Z,20.70
2019-04-23T07:02:35.923Z,20.60
2019-04-23T07:09:45.549Z,20.60
2019-04-23T07:12:19.886Z,20.60
2019-04-23T07:14:49.315Z,20.70
2019-04-23T07:17:21.185Z,20.70
2019-04-23T07:19:35.503Z,20.60
2019-04-23T07:22:09.675Z,20.60
2019-04-23T07:24:24.500Z,20.70
2019-04-23T07:26:45.296Z,20.70
2019-04-23T07:29:23.908Z,20.70
2019-04-23T07:31:48.295Z,20.70
2019-04-23T07:39:09.807Z,20.70
2019-04-23T07:41:46.502Z,20.60
2019-04-23T07:44:07.794Z,20.70
2019-04-23T07:46:40.825Z,20.70
2019-04-23T07:48:49.131Z,20.60
2019-04-23T07:51:14.790Z,20.60
2019-04-23T07:53:49.698Z,20.60
2019-04-23T07:56:07.562Z,20.60
2019-04-23T07:58:33.537Z,20.60
2019-04-23T08:01:00.991Z,20.60
2019-04-23T08:05:49.070Z,20.60
2019-04-23T08:08:16.818Z,20.60
2019-04-23T08:11:02.629Z,20.60
2019-04-23T08:13:15.622Z,20.60
2019-04-23T08:18:08.900Z,20.70
2019-04-23T08:22:53.760Z,20.80
2019-04-23T08:25:26.640Z,20.80
2019-04-23T08:27:51.515Z,20.70
2019-04-23T08:30:10.883Z,20.70
2019-04-23T08:32:38.546Z,20.70
2019-04-23T08:35:11.002Z,20.70
2019-04-23T08:37:51.211Z,20.70
2019-04-23T08:39:52.441Z,20.70
2019-04-23T08:42:45.369Z,20.70
2019-04-23T08:45:05.537Z,20.70
2019-04-23T08:47:20.297Z,20.70
2019-04-23T08:52:12.205Z,20.80
2019-04-23T08:54:48.308Z,20.80
2019-04-23T09:04:23.711Z,20.80
2019-04-23T09:06:53.431Z,20.80
2019-04-23T09:09:21.914Z,20.80
2019-04-23T09:11:50.214Z,20.80
2019-04-23T09:13:59.639Z,20.80
2019-04-23T09:16:44.306Z,20.80
2019-04-23T09:19:03.467Z,20.80
2019-04-23T09:21:27.779Z,20.80
2019-04-23T09:23:53.757Z,20.80
2019-04-23T09:26:13.771Z,20.80
2019-04-23T09:28:51.837Z,20.80
2019-04-23T09:33:46.793Z,20.80
2019-04-23T09:36:09.707Z,20.80
2019-04-23T09:38:45.088Z,20.80
2019-04-23T09:41:15.274Z,20.80
2019-04-23T09:43:19.531Z,20.80
2019-04-23T09:45:48.545Z,20.80
2019-04-23T09:48:11.718Z,20.80
2019-04-23T09:50:49.377Z,20.90
2019-04-23T09:55:37.397Z,20.90
2019-04-23T09:58:02.261Z,20.80
2019-04-23T10:00:31.646Z,20.80
2019-04-23T10:02:44.988Z,20.80
2019-04-23T10:05:04.055Z,20.80
2019-04-23T10:07:30.025Z,20.80
2019-04-23T10:09:45.021Z,20.80
2019-04-23T10:12:11.566Z,20.90
2019-04-23T10:14:36.800Z,20.80
2019-04-23T10:17:03.983Z,20.90
2019-04-23T10:19:28.817Z,20.90
2019-04-23T10:21:55.554Z,20.90
2019-04-23T10:24:21.124Z,20.90
2019-04-23T10:26:48.179Z,20.90
2019-04-23T10:29:13.953Z,20.90
2019-04-23T10:31:40.115Z,20.90
2019-04-23T10:34:08.152Z,20.90
2019-04-23T10:36:34.571Z,20.90
2019-04-23T10:39:06.149Z,20.90
2019-04-23T10:41:25.756Z,20.90
2019-04-23T10:43:54.400Z,20.90
2019-04-23T10:46:36.387Z,20.90
2019-04-23T10:51:55.067Z,20.90
2019-04-23T10:54:18.185Z,20.90
2019-04-23T10:56:34.372Z,20.90
2019-04-23T10:58:54.417Z,20.90
2019-04-23T11:01:21.349Z,20.90
2019-04-23T11:06:26.851Z,20.90
2019-04-23T11:16:27.580Z,20.90
2019-04-23T11:18:40.176Z,20.90
2019-04-23T11:21:13.998Z,20.90
2019-04-23T11:23:25.049Z,20.90
2019-04-23T11:30:49.373Z,20.90
2019-04-23T11:33:10.258Z,20.90
2019-04-23T11:35:40.941Z,20.90
2019-04-23T11:43:08.984Z,20.90
2019-04-23T11:45:30.596Z,21.00
2019-04-23T11:50:41.722Z,21.00
2019-04-23T11:52:41.414Z,20.90
2019-04-23T11:55:22.786Z,20.90
2019-04-23T11:57:54.871Z,21.00
2019-04-23T12:02:29.615Z,21.00
2019-04-23T12:04:56.799Z,21.00
2019-04-23T12:07:21.409Z,21.00
2019-04-23T12:10:16.393Z,21.00
2019-04-23T12:12:11.164Z,21.00
2019-04-23T12:21:53.116Z,21.00
2019-04-23T12:24:29.237Z,21.00
2019-04-23T12:27:00.037Z,21.00
2019-04-23T12:29:20.326Z,21.00
2019-04-23T12:31:39.997Z,21.00
2019-04-23T12:34:09.184Z,21.00
2019-04-23T12:36:42.194Z,21.00
2019-04-23T12:38:58.778Z,21.00
2019-04-23T12:41:21.235Z,21.00
2019-04-23T12:43:50.581Z,21.00
2019-04-23T12:46:02.193Z,21.00
2019-04-23T12:50:58.669Z,21.00
2019-04-23T12:53:34.802Z,21.00
2019-04-23T12:56:05.420Z,21.00
2019-04-23T13:00:57.790Z,21.00
2019-04-23T13:03:21.581Z,21.00
2019-04-23T13:05:34.192Z,21.10
2019-04-23T13:10:42.349Z,21.00
2019-04-23T13:13:09.442Z,21.00
2019-04-23T13:15:30.944Z,21.00
2019-04-23T13:17:54.172Z,21.00
2019-04-23T13:20:23.623Z,21.00
2019-04-23T13:27:46.622Z,21.00
2019-04-23T13:30:11.859Z,21.10
2019-04-23T13:32:43.370Z,21.10
2019-04-23T13:35:12.918Z,21.10
2019-04-23T13:37:29.387Z,21.10
2019-04-23T13:39:51.613Z,21.10
2019-04-23T13:42:25.152Z,21.10
2019-04-23T13:44:46.731Z,21.10
2019-04-23T13:47:23.071Z,21.10
2019-04-23T13:49:42.052Z,21.10
2019-04-23T13:52:05.878Z,21.10
2019-04-23T13:54:46.521Z,21.10
2019-04-23T13:59:30.572Z,21.10
2019-04-23T14:01:46.654Z,21.10
2019-04-23T14:04:21.296Z,21.10
2019-04-23T14:11:34.269Z,21.10
2019-04-23T14:14:08.370Z,21.10
2019-04-23T14:16:34.387Z,21.10
2019-04-23T14:21:25.243Z,21.10
2019-04-23T14:31:07.856Z,21.10
2019-04-23T14:33:38.307Z,21.10
2019-04-23T14:35:56.353Z,21.10
2019-04-23T14:41:03.430Z,21.20
2019-04-23T14:43:13.941Z,21.10
2019-04-23T14:48:08.680Z,21.20
2019-04-23T14:53:09.690Z,21.10
2019-04-23T14:55:55.582Z,21.20
2019-04-23T14:58:02.590Z,21.20
2019-04-23T15:00:29.222Z,21.20
2019-04-23T15:02:53.630Z,21.20
2019-04-23T15:05:15.381Z,21.20
2019-04-23T15:07:34.694Z,21.20
2019-04-23T15:10:08.545Z,21.20
2019-04-23T15:12:30.131Z,21.20
2019-04-23T15:15:10.016Z,21.20
2019-04-23T15:17:20.549Z,21.20
2019-04-23T15:22:17.069Z,21.20
2019-04-23T15:24:37.627Z,21.20
2019-04-23T15:27:02.344Z,21.20
2019-04-23T15:29:19.676Z,21.20
2019-04-23T15:32:00.792Z,21.20
2019-04-23T15:41:49.690Z,21.30
2019-04-23T15:53:56.981Z,21.30
2019-04-23T15:56:27.245Z,21.30
2019-04-23T15:59:13.623Z,21.30
2019-04-23T16:01:15.418Z,21.30
2019-04-23T16:03:13.581Z,21.30
2019-04-23T16:05:37.371Z,21.30
2019-04-23T16:08:39.016Z,21.30
2019-04-23T16:11:04.888Z,21.30
2019-04-23T16:13:30.955Z,21.30
2019-04-23T16:15:50.360Z,21.30
2019-04-23T16:18:23.557Z,21.30
2019-04-23T16:20:47.359Z,21.30
2019-04-23T16:23:04.423Z,21.30
2019-04-23T16:25:26.412Z,21.30
2019-04-23T16:28:03.607Z,21.30
2019-04-23T16:30:28.730Z,21.30
2019-04-23T16:33:02.502Z,21.30
2019-04-23T16:37:50.428Z,21.30
2019-04-23T16:42:39.943Z,21.30
2019-04-23T16:47:32.861Z,21.30
2019-04-23T16:52:21.371Z,21.30
2019-04-23T16:54:55.202Z,21.30
2019-04-23T16:57:31.116Z,21.30
2019-04-23T17:00:03.755Z,21.30
2019-04-23T17:02:14.945Z,21.30
2019-04-23T17:04:39.247Z,21.30
2019-04-23T17:07:02.306Z,21.30
2019-04-23T17:09:38.527Z,21.30
2019-04-23T17:12:07.769Z,21.30
2019-04-23T17:14:35.092Z,21.30
2019-04-23T17:16:42.630Z,21.30
2019-04-23T17:19:16.452Z,21.30
2019-04-23T17:21:38.692Z,21.30
2019-04-23T17:24:15.465Z,21.30
2019-04-23T17:26:30.725Z,21.30
2019-04-23T17:29:06.032Z,21.30
2019-04-23T17:31:35.277Z,21.30
2019-04-23T17:38:51.054Z,21.30
2019-04-23T17:41:15.635Z,21.30
2019-04-23T17:43:46.993Z,21.30
2019-04-23T17:46:07.883Z,21.30
2019-04-23T17:48:40.283Z,21.30
2019-04-23T17:51:02.665Z,21.30
2019-04-23T17:53:25.337Z,21.30
2019-04-23T17:56:15.257Z,21.30
2019-04-23T17:58:23.404Z,21.30
2019-04-23T18:00:54.375Z,21.30
2019-04-23T18:05:33.340Z,21.30
2019-04-23T18:17:54.741Z,21.30
2019-04-23T18:20:19.324Z,21.30
2019-04-23T18:22:48.773Z,21.30
2019-04-23T18:25:11.167Z,21.30
2019-04-23T18:27:33.758Z,21.30
2019-04-23T18:30:10.923Z,21.30
2019-04-23T18:32:37.632Z,21.30
2019-04-23T18:35:15.386Z,21.30
2019-04-23T18:37:29.922Z,21.30
2019-04-23T18:39:48.632Z,21.30
2019-04-23T18:42:26.107Z,21.30
2019-04-23T18:44:42.093Z,21.30
2019-04-23T18:47:16.637Z,21.30
2019-04-23T18:49:41.393Z,21.30
2019-04-23T18:52:05.119Z,21.30
2019-04-23T18:54:29.179Z,21.30
2019-04-23T18:57:06.596Z,21.30
2019-04-23T18:59:30.526Z,21.30
2019-04-23T19:01:47.847Z,21.30
2019-04-23T19:04:50.990Z,21.30
2019-04-23T19:06:34.570Z,21.30
2019-04-23T19:11:44.558Z,21.30
2019-04-23T19:13:59.765Z,21.20
2019-04-23T19:16:28.617Z,21.30
2019-04-23T19:18:58.199Z,21.30
2019-04-23T19:21:36.303Z,21.30
2019-04-23T19:23:47.631Z,21.30
2019-04-23T19:26:27.413Z,21.30
2019-04-23T19:28:47.444Z,21.30
2019-04-23T19:31:04.897Z,21.30
2019-04-23T19:33:36.719Z,21.30
2019-04-23T19:38:26.515Z,21.30
2019-04-23T19:40:53.088Z,21.30
2019-04-23T19:43:15.262Z,21.20
2019-04-23T19:48:10.725Z,21.30
2019-04-23T19:50:41.357Z,21.20
2019-04-23T19:55:21.430Z,21.30
2019-04-23T19:57:55.211Z,21.20
2019-04-23T20:00:21.815Z,21.30
2019-04-23T20:03:06.263Z,21.30
2019-04-23T20:05:09.187Z,21.30
2019-04-23T20:09:55.259Z,21.30
2019-04-23T20:12:26.881Z,21.20
2019-04-23T20:14:56.513Z,21.30
2019-04-23T20:19:49.896Z,21.20
2019-04-23T20:22:26.037Z,21.20
2019-04-23T20:27:14.015Z,21.20
2019-04-23T20:34:40.240Z,21.20
2019-04-23T20:36:52.674Z,21.20
2019-04-23T20:39:26.777Z,21.20
2019-04-23T20:42:07.810Z,21.20
2019-04-23T20:46:46.087Z,21.20
2019-04-23T20:49:07.265Z,21.20
2019-04-23T20:51:48.028Z,21.20
2019-04-23T20:54:03.868Z,21.20
2019-04-23T20:56:36.089Z,21.20
2019-04-23T20:58:55.022Z,21.20
2019-04-23T21:01:26.993Z,21.20
2019-04-23T21:03:52.018Z,21.20
2019-04-23T21:06:08.719Z,21.20
2019-04-23T21:10:55.475Z,21.20
2019-04-23T21:15:52.753Z,21.20
2019-04-23T21:18:31.557Z,21.20
2019-04-23T21:21:02.043Z,21.20
2019-04-23T21:25:44.669Z,21.20
2019-04-23T21:30:48.548Z,21.20
2019-04-23T21:33:04.881Z,21.20
2019-04-23T21:35:44.352Z,21.20
2019-04-23T21:40:42.437Z,21.20
2019-04-23T21:42:59.069Z,21.20
2019-04-23T21:45:17.473Z,21.20
2019-04-23T21:47:45.989Z,21.20
2019-04-23T21:50:11.917Z,21.20
2019-04-23T21:52:36.114Z,21.20
2019-04-23T21:54:56.875Z,21.20
2019-04-23T21:57:32.506Z,21.20
2019-04-23T21:59:50.486Z,21.20
2019-04-23T22:02:22.044Z,21.20
2019-04-23T22:04:50.015Z,21.20
2019-04-23T22:07:29.330Z,21.20
2019-04-23T22:09:36.033Z,21.20
2019-04-23T22:12:03.603Z,21.20
2019-04-23T22:14:28.977Z,21.20
2019-04-23T22:16:55.699Z,21.20
2019-04-23T22:19:19.769Z,21.10
2019-04-23T22:21:54.564Z,21.20
2019-04-23T22:24:19.776Z,21.20
2019-04-23T22:31:38.734Z,21.20
2019-04-23T22:36:21.140Z,21.20
2019-04-23T22:38:51.187Z,21.10
2019-04-23T22:41:16.215Z,21.20
2019-04-23T22:43:55.693Z,21.20
2019-04-23T22:48:37.238Z,21.20
2019-04-23T22:51:11.057Z,21.20
2019-04-23T22:53:33.216Z,21.20
2019-04-23T22:55:57.274Z,21.20
2019-04-23T22:58:19.881Z,21.20
2019-04-23T23:00:55.312Z,21.10
2019-04-23T23:03:29.488Z,21.20
2019-04-23T23:05:53.822Z,21.10
2019-04-23T23:10:27.727Z,21.20
2019-04-23T23:13:12.089Z,21.10
2019-04-23T23:15:22.982Z,21.20
2019-04-23T23:18:02.091Z,21.10
2019-04-23T23:20:20.873Z,21.10
2019-04-23T23:23:06.121Z,21.10
2019-04-23T23:25:20.068Z,21.10
2019-04-23T23:27:40.443Z,21.10
2019-04-23T23:32:31.381Z,21.10
2019-04-23T23:35:08.041Z,21.10
2019-04-23T23:39:54.569Z,21.10
2019-04-23T23:42:19.623Z,21.10
2019-04-23T23:47:08.098Z,21.10
2019-04-23T23:49:33.783Z,21.10
2019-04-23T23:52:01.299Z,21.10
2019-04-23T23:54:20.026Z,21.10
2019-04-23T23:56:58.809Z,21.10
